sensor_id;sensor_type;location;lat;lon;timestamp;temperature;humidity
12833;DHT22;6483;51.310;4.462;2022-12-07T00:01:37;3.80;99.90
12833;DHT22;6483;51.310;4.462;2022-12-07T00:04:05;3.90;99.90
12833;DHT22;6483;51.310;4.462;2022-12-07T00:06:38;4.10;99.90
12833;DHT22;6483;51.310;4.462;2022-12-07T00:09:05;4.80;99.90
12833;DHT22;6483;51.310;4.462;2022-12-07T00:11:34;4.40;99.90
12833;DHT22;6483;51.310;4.462;2022-12-07T00:14:07;4.50;99.90
12833;DHT22;6483;51.310;4.462;2022-12-07T00:16:37;4.50;99.90
12833;DHT22;6483;51.310;4.462;2022-12-07T00:19:04;4.60;99.90
12833;DHT22;6483;51.310;4.462;2022-12-07T00:21:32;4.60;99.90
12833;DHT22;6483;51.310;4.462;2022-12-07T00:23:58;4.40;99.90
12833;DHT22;6483;51.310;4.462;2022-12-07T00:26:30;4.20;99.90
12833;DHT22;6483;51.310;4.462;2022-12-07T00:29:09;4.10;99.90
12833;DHT22;6483;51.310;4.462;2022-12-07T00:31:37;4.00;99.90
12833;DHT22;6483;51.310;4.462;2022-12-07T00:34:16;4.00;99.90
12833;DHT22;6483;51.310;4.462;2022-12-07T00:36:42;4.20;99.90
12833;DHT22;6483;51.310;4.462;2022-12-07T00:39:08;4.40;99.90
12833;DHT22;6483;51.310;4.462;2022-12-07T00:41:37;4.60;99.90
12833;DHT22;6483;51.310;4.462;2022-12-07T00:44:03;4.70;99.90
12833;DHT22;6483;51.310;4.462;2022-12-07T00:46:29;4.60;99.90
12833;DHT22;6483;51.310;4.462;2022-12-07T00:48:55;4.60;99.90
12833;DHT22;6483;51.310;4.462;2022-12-07T00:51:22;4.60;99.90
12833;DHT22;6483;51.310;4.462;2022-12-07T00:53:49;4.50;99.90
12833;DHT22;6483;51.310;4.462;2022-12-07T00:56:26;5.60;99.90
12833;DHT22;6483;51.310;4.462;2022-12-07T00:58:53;4.50;99.90
12833;DHT22;6483;51.310;4.462;2022-12-07T01:01:20;4.40;99.90
12833;DHT22;6483;51.310;4.462;2022-12-07T01:03:45;4.30;99.90
12833;DHT22;6483;51.310;4.462;2022-12-07T01:06:15;4.20;99.90
12833;DHT22;6483;51.310;4.462;2022-12-07T01:08:41;4.00;99.90
12833;DHT22;6483;51.310;4.462;2022-12-07T01:11:09;3.90;99.90
12833;DHT22;6483;51.310;4.462;2022-12-07T01:13:39;3.90;99.90
12833;DHT22;6483;51.310;4.462;2022-12-07T01:16:10;3.90;99.90
12833;DHT22;6483;51.310;4.462;2022-12-07T01:18:37;3.90;99.90
12833;DHT22;6483;51.310;4.462;2022-12-07T01:21:15;5.50;99.90
12833;DHT22;6483;51.310;4.462;2022-12-07T01:23:41;3.90;99.90
12833;DHT22;6483;51.310;4.462;2022-12-07T01:26:11;3.90;99.90
12833;DHT22;6483;51.310;4.462;2022-12-07T01:28:41;3.80;99.90
12833;DHT22;6483;51.310;4.462;2022-12-07T01:31:09;3.70;99.90
12833;DHT22;6483;51.310;4.462;2022-12-07T01:33:38;3.60;99.90
12833;DHT22;6483;51.310;4.462;2022-12-07T01:36:05;3.50;99.90
12833;DHT22;6483;51.310;4.462;2022-12-07T01:38:34;3.60;99.90
12833;DHT22;6483;51.310;4.462;2022-12-07T01:41:04;3.70;99.90
12833;DHT22;6483;51.310;4.462;2022-12-07T01:43:34;3.50;99.90
12833;DHT22;6483;51.310;4.462;2022-12-07T01:46:04;3.30;99.90
12833;DHT22;6483;51.310;4.462;2022-12-07T01:48:40;3.20;99.90
12833;DHT22;6483;51.310;4.462;2022-12-07T01:51:10;3.20;99.90
12833;DHT22;6483;51.310;4.462;2022-12-07T01:53:41;3.30;99.90
12833;DHT22;6483;51.310;4.462;2022-12-07T01:56:18;3.50;99.90
12833;DHT22;6483;51.310;4.462;2022-12-07T01:58:45;3.50;99.90
12833;DHT22;6483;51.310;4.462;2022-12-07T02:01:11;3.60;99.90
12833;DHT22;6483;51.310;4.462;2022-12-07T02:03:40;3.60;99.90
12833;DHT22;6483;51.310;4.462;2022-12-07T02:06:07;3.60;99.90
12833;DHT22;6483;51.310;4.462;2022-12-07T02:08:34;3.60;99.90
12833;DHT22;6483;51.310;4.462;2022-12-07T02:11:03;3.70;99.90
12833;DHT22;6483;51.310;4.462;2022-12-07T02:13:34;3.90;99.90
12833;DHT22;6483;51.310;4.462;2022-12-07T02:16:25;5.10;99.90
12833;DHT22;6483;51.310;4.462;2022-12-07T02:28:26;4.10;99.90
12833;DHT22;6483;51.310;4.462;2022-12-07T02:30:55;4.20;99.90
12833;DHT22;6483;51.310;4.462;2022-12-07T02:33:45;4.20;99.90
12833;DHT22;6483;51.310;4.462;2022-12-07T02:39:18;4.20;99.90
12833;DHT22;6483;51.310;4.462;2022-12-07T02:41:55;4.30;99.90
12833;DHT22;6483;51.310;4.462;2022-12-07T02:44:25;4.30;99.90
12833;DHT22;6483;51.310;4.462;2022-12-07T02:47:05;4.30;99.90
12833;DHT22;6483;51.310;4.462;2022-12-07T02:49:33;4.30;99.90
12833;DHT22;6483;51.310;4.462;2022-12-07T02:52:01;4.20;99.90
12833;DHT22;6483;51.310;4.462;2022-12-07T02:54:47;4.10;99.90
12833;DHT22;6483;51.310;4.462;2022-12-07T02:57:32;4.10;99.90
12833;DHT22;6483;51.310;4.462;2022-12-07T03:00:29;4.00;99.90
12833;DHT22;6483;51.310;4.462;2022-12-07T03:03:12;3.80;99.90
12833;DHT22;6483;51.310;4.462;2022-12-07T03:11:32;3.30;99.90
12833;DHT22;6483;51.310;4.462;2022-12-07T03:19:24;2.90;99.90
12833;DHT22;6483;51.310;4.462;2022-12-07T03:22:00;2.70;99.90
12833;DHT22;6483;51.310;4.462;2022-12-07T03:24:35;2.60;99.90
12833;DHT22;6483;51.310;4.462;2022-12-07T03:29:55;2.70;99.90
12833;DHT22;6483;51.310;4.462;2022-12-07T03:35:51;2.60;99.90
12833;DHT22;6483;51.310;4.462;2022-12-07T03:38:29;2.50;99.90
12833;DHT22;6483;51.310;4.462;2022-12-07T03:41:12;2.70;99.90
12833;DHT22;6483;51.310;4.462;2022-12-07T03:43:42;2.70;99.90
12833;DHT22;6483;51.310;4.462;2022-12-07T03:54:58;2.70;99.90
12833;DHT22;6483;51.310;4.462;2022-12-07T03:57:27;2.70;99.90
12833;DHT22;6483;51.310;4.462;2022-12-07T03:59:56;2.80;99.90
12833;DHT22;6483;51.310;4.462;2022-12-07T04:02:23;4.40;99.90
12833;DHT22;6483;51.310;4.462;2022-12-07T04:04:50;2.50;99.90
12833;DHT22;6483;51.310;4.462;2022-12-07T04:07:17;3.20;99.90
12833;DHT22;6483;51.310;4.462;2022-12-07T04:09:42;2.30;99.90
12833;DHT22;6483;51.310;4.462;2022-12-07T04:12:11;2.30;99.90
12833;DHT22;6483;51.310;4.462;2022-12-07T04:14:36;2.20;99.90
12833;DHT22;6483;51.310;4.462;2022-12-07T04:17:03;3.60;99.90
12833;DHT22;6483;51.310;4.462;2022-12-07T04:19:33;2.20;99.90
12833;DHT22;6483;51.310;4.462;2022-12-07T04:22:01;2.20;99.90
12833;DHT22;6483;51.310;4.462;2022-12-07T04:24:27;2.50;99.90
12833;DHT22;6483;51.310;4.462;2022-12-07T04:26:54;2.50;99.90
12833;DHT22;6483;51.310;4.462;2022-12-07T04:29:21;2.70;99.90
12833;DHT22;6483;51.310;4.462;2022-12-07T04:31:47;5.00;99.90
12833;DHT22;6483;51.310;4.462;2022-12-07T04:34:14;2.80;99.90
12833;DHT22;6483;51.310;4.462;2022-12-07T04:36:43;5.10;99.90
12833;DHT22;6483;51.310;4.462;2022-12-07T04:39:22;2.90;99.90
12833;DHT22;6483;51.310;4.462;2022-12-07T04:41:48;2.90;99.90
12833;DHT22;6483;51.310;4.462;2022-12-07T04:44:14;5.30;99.90
12833;DHT22;6483;51.310;4.462;2022-12-07T04:46:41;3.00;99.90
12833;DHT22;6483;51.310;4.462;2022-12-07T04:49:07;3.10;99.90
12833;DHT22;6483;51.310;4.462;2022-12-07T04:51:32;3.20;99.90
12833;DHT22;6483;51.310;4.462;2022-12-07T04:53:58;3.40;99.90
12833;DHT22;6483;51.310;4.462;2022-12-07T04:56:24;3.50;99.90
12833;DHT22;6483;51.310;4.462;2022-12-07T04:58:56;3.00;99.90
12833;DHT22;6483;51.310;4.462;2022-12-07T05:01:22;3.00;99.90
12833;DHT22;6483;51.310;4.462;2022-12-07T05:03:49;4.50;99.90
12833;DHT22;6483;51.310;4.462;2022-12-07T05:06:14;2.90;99.90
12833;DHT22;6483;51.310;4.462;2022-12-07T05:08:40;3.90;99.90
12833;DHT22;6483;51.310;4.462;2022-12-07T05:11:07;3.00;99.90
12833;DHT22;6483;51.310;4.462;2022-12-07T05:13:33;4.40;99.90
12833;DHT22;6483;51.310;4.462;2022-12-07T05:16:06;3.70;99.90
12833;DHT22;6483;51.310;4.462;2022-12-07T05:18:32;3.20;99.90
12833;DHT22;6483;51.310;4.462;2022-12-07T05:21:24;3.20;99.90
12833;DHT22;6483;51.310;4.462;2022-12-07T05:23:50;4.10;99.90
12833;DHT22;6483;51.310;4.462;2022-12-07T05:26:16;3.00;99.90
12833;DHT22;6483;51.310;4.462;2022-12-07T05:28:41;4.90;99.90
12833;DHT22;6483;51.310;4.462;2022-12-07T05:31:07;4.60;99.90
12833;DHT22;6483;51.310;4.462;2022-12-07T05:33:33;3.10;99.90
12833;DHT22;6483;51.310;4.462;2022-12-07T05:35:58;4.80;99.90
12833;DHT22;6483;51.310;4.462;2022-12-07T05:38:27;3.10;99.90
12833;DHT22;6483;51.310;4.462;2022-12-07T05:40:53;3.10;99.90
12833;DHT22;6483;51.310;4.462;2022-12-07T05:43:18;3.10;99.90
12833;DHT22;6483;51.310;4.462;2022-12-07T05:45:44;3.90;99.90
12833;DHT22;6483;51.310;4.462;2022-12-07T05:48:10;2.90;99.90
12833;DHT22;6483;51.310;4.462;2022-12-07T05:50:38;4.30;99.90
12833;DHT22;6483;51.310;4.462;2022-12-07T05:53:04;3.20;99.90
12833;DHT22;6483;51.310;4.462;2022-12-07T05:55:30;3.20;99.90
12833;DHT22;6483;51.310;4.462;2022-12-07T05:57:56;5.40;99.90
12833;DHT22;6483;51.310;4.462;2022-12-07T06:00:40;3.40;99.90
12833;DHT22;6483;51.310;4.462;2022-12-07T06:03:06;3.30;99.90
12833;DHT22;6483;51.310;4.462;2022-12-07T06:05:36;5.30;99.90
12833;DHT22;6483;51.310;4.462;2022-12-07T06:08:04;3.40;99.90
12833;DHT22;6483;51.310;4.462;2022-12-07T06:10:33;3.40;99.90
12833;DHT22;6483;51.310;4.462;2022-12-07T06:12:59;3.60;99.90
12833;DHT22;6483;51.310;4.462;2022-12-07T06:15:24;3.70;99.90
12833;DHT22;6483;51.310;4.462;2022-12-07T06:17:53;3.60;99.90
12833;DHT22;6483;51.310;4.462;2022-12-07T06:20:22;3.50;99.90
12833;DHT22;6483;51.310;4.462;2022-12-07T06:22:50;4.50;99.90
12833;DHT22;6483;51.310;4.462;2022-12-07T06:25:19;3.30;99.90
12833;DHT22;6483;51.310;4.462;2022-12-07T06:27:44;3.30;99.90
12833;DHT22;6483;51.310;4.462;2022-12-07T06:30:10;3.30;99.90
12833;DHT22;6483;51.310;4.462;2022-12-07T06:32:37;3.20;99.90
12833;DHT22;6483;51.310;4.462;2022-12-07T06:35:06;3.20;99.90
12833;DHT22;6483;51.310;4.462;2022-12-07T06:37:32;3.00;99.90
12833;DHT22;6483;51.310;4.462;2022-12-07T06:39:57;2.80;99.90
12833;DHT22;6483;51.310;4.462;2022-12-07T06:42:26;2.50;99.90
12833;DHT22;6483;51.310;4.462;2022-12-07T06:44:52;3.30;99.90
12833;DHT22;6483;51.310;4.462;2022-12-07T06:47:17;2.30;99.90
12833;DHT22;6483;51.310;4.462;2022-12-07T06:49:43;2.30;99.90
12833;DHT22;6483;51.310;4.462;2022-12-07T06:52:09;3.70;99.90
12833;DHT22;6483;51.310;4.462;2022-12-07T06:54:34;1.90;99.90
12833;DHT22;6483;51.310;4.462;2022-12-07T06:57:03;2.00;99.90
12833;DHT22;6483;51.310;4.462;2022-12-07T06:59:32;3.20;99.90
12833;DHT22;6483;51.310;4.462;2022-12-07T07:02:00;1.80;99.90
12833;DHT22;6483;51.310;4.462;2022-12-07T07:04:26;1.90;99.90
12833;DHT22;6483;51.310;4.462;2022-12-07T07:07:15;3.50;99.90
12833;DHT22;6483;51.310;4.462;2022-12-07T07:09:41;2.30;99.90
12833;DHT22;6483;51.310;4.462;2022-12-07T07:12:07;2.20;99.90
12833;DHT22;6483;51.310;4.462;2022-12-07T07:14:33;2.30;99.90
12833;DHT22;6483;51.310;4.462;2022-12-07T07:16:59;2.30;99.90
12833;DHT22;6483;51.310;4.462;2022-12-07T07:19:25;2.90;99.90
12833;DHT22;6483;51.310;4.462;2022-12-07T07:21:50;2.20;99.90
12833;DHT22;6483;51.310;4.462;2022-12-07T07:24:16;1.90;99.90
12833;DHT22;6483;51.310;4.462;2022-12-07T07:26:42;2.70;99.90
12833;DHT22;6483;51.310;4.462;2022-12-07T07:29:10;4.20;99.90
12833;DHT22;6483;51.310;4.462;2022-12-07T07:31:36;1.70;99.90
12833;DHT22;6483;51.310;4.462;2022-12-07T07:34:04;2.10;99.90
12833;DHT22;6483;51.310;4.462;2022-12-07T07:36:35;1.90;99.90
12833;DHT22;6483;51.310;4.462;2022-12-07T07:39:04;1.90;99.90
12833;DHT22;6483;51.310;4.462;2022-12-07T07:41:30;1.90;99.90
12833;DHT22;6483;51.310;4.462;2022-12-07T07:43:56;3.30;99.90
12833;DHT22;6483;51.310;4.462;2022-12-07T07:46:21;2.30;99.90
12833;DHT22;6483;51.310;4.462;2022-12-07T07:48:47;3.30;99.90
12833;DHT22;6483;51.310;4.462;2022-12-07T07:51:16;2.30;99.90
12833;DHT22;6483;51.310;4.462;2022-12-07T07:53:47;2.90;99.90
12833;DHT22;6483;51.310;4.462;2022-12-07T07:56:13;2.50;99.90
12833;DHT22;6483;51.310;4.462;2022-12-07T07:58:41;2.60;99.90
12833;DHT22;6483;51.310;4.462;2022-12-07T08:01:10;2.70;99.90
12833;DHT22;6483;51.310;4.462;2022-12-07T08:03:36;2.90;99.90
12833;DHT22;6483;51.310;4.462;2022-12-07T08:06:07;2.90;99.90
12833;DHT22;6483;51.310;4.462;2022-12-07T08:08:51;2.90;99.90
12833;DHT22;6483;51.310;4.462;2022-12-07T08:11:18;3.00;99.90
12833;DHT22;6483;51.310;4.462;2022-12-07T08:13:46;4.10;99.90
12833;DHT22;6483;51.310;4.462;2022-12-07T08:16:13;5.60;99.90
12833;DHT22;6483;51.310;4.462;2022-12-07T08:18:41;3.40;99.90
12833;DHT22;6483;51.310;4.462;2022-12-07T08:21:09;3.50;99.90
12833;DHT22;6483;51.310;4.462;2022-12-07T08:23:36;3.50;99.90
12833;DHT22;6483;51.310;4.462;2022-12-07T08:26:08;4.00;99.90
12833;DHT22;6483;51.310;4.462;2022-12-07T08:28:38;4.30;99.90
12833;DHT22;6483;51.310;4.462;2022-12-07T08:31:10;3.60;99.90
12833;DHT22;6483;51.310;4.462;2022-12-07T08:33:37;3.70;99.90
12833;DHT22;6483;51.310;4.462;2022-12-07T08:36:05;4.00;99.90
12833;DHT22;6483;51.310;4.462;2022-12-07T08:38:33;4.10;99.90
12833;DHT22;6483;51.310;4.462;2022-12-07T08:40:59;6.20;99.90
12833;DHT22;6483;51.310;4.462;2022-12-07T08:43:25;4.60;99.90
12833;DHT22;6483;51.310;4.462;2022-12-07T08:46:06;5.20;99.90
12833;DHT22;6483;51.310;4.462;2022-12-07T08:48:34;4.30;99.90
12833;DHT22;6483;51.310;4.462;2022-12-07T08:51:01;4.50;99.90
12833;DHT22;6483;51.310;4.462;2022-12-07T08:53:28;4.70;99.90
12833;DHT22;6483;51.310;4.462;2022-12-07T08:55:56;4.80;99.90
12833;DHT22;6483;51.310;4.462;2022-12-07T08:58:23;5.00;99.90
12833;DHT22;6483;51.310;4.462;2022-12-07T09:00:51;5.20;99.90
12833;DHT22;6483;51.310;4.462;2022-12-07T09:03:17;5.40;99.90
12833;DHT22;6483;51.310;4.462;2022-12-07T09:05:44;7.00;99.90
12833;DHT22;6483;51.310;4.462;2022-12-07T09:08:10;5.60;99.90
12833;DHT22;6483;51.310;4.462;2022-12-07T09:10:36;6.70;99.90
12833;DHT22;6483;51.310;4.462;2022-12-07T09:13:04;5.70;99.90
12833;DHT22;6483;51.310;4.462;2022-12-07T09:15:30;5.90;99.90
12833;DHT22;6483;51.310;4.462;2022-12-07T09:17:59;6.20;99.90
12833;DHT22;6483;51.310;4.462;2022-12-07T09:20:25;6.30;99.90
12833;DHT22;6483;51.310;4.462;2022-12-07T09:22:51;6.60;99.90
12833;DHT22;6483;51.310;4.462;2022-12-07T09:25:19;7.40;99.90
12833;DHT22;6483;51.310;4.462;2022-12-07T09:27:48;8.40;99.90
12833;DHT22;6483;51.310;4.462;2022-12-07T09:30:14;8.40;99.90
12833;DHT22;6483;51.310;4.462;2022-12-07T09:32:40;8.10;99.90
12833;DHT22;6483;51.310;4.462;2022-12-07T09:35:09;7.70;99.90
12833;DHT22;6483;51.310;4.462;2022-12-07T09:37:38;7.60;99.90
12833;DHT22;6483;51.310;4.462;2022-12-07T09:40:08;8.20;99.90
12833;DHT22;6483;51.310;4.462;2022-12-07T09:42:38;8.50;99.90
12833;DHT22;6483;51.310;4.462;2022-12-07T09:45:10;8.30;99.90
12833;DHT22;6483;51.310;4.462;2022-12-07T09:47:37;8.20;99.90
12833;DHT22;6483;51.310;4.462;2022-12-07T09:50:07;8.00;99.90
12833;DHT22;6483;51.310;4.462;2022-12-07T09:52:34;8.20;99.90
12833;DHT22;6483;51.310;4.462;2022-12-07T09:55:09;8.40;99.90
12833;DHT22;6483;51.310;4.462;2022-12-07T09:57:36;8.60;99.90
12833;DHT22;6483;51.310;4.462;2022-12-07T10:00:10;9.40;99.90
12833;DHT22;6483;51.310;4.462;2022-12-07T10:05:32;9.90;99.90
12833;DHT22;6483;51.310;4.462;2022-12-07T10:08:00;9.50;99.90
12833;DHT22;6483;51.310;4.462;2022-12-07T10:10:32;9.20;99.90
12833;DHT22;6483;51.310;4.462;2022-12-07T10:15:47;9.10;99.90
12833;DHT22;6483;51.310;4.462;2022-12-07T10:18:40;9.00;99.90
12833;DHT22;6483;51.310;4.462;2022-12-07T10:21:26;8.80;99.90
12833;DHT22;6483;51.310;4.462;2022-12-07T10:24:13;8.70;99.90
12833;DHT22;6483;51.310;4.462;2022-12-07T10:26:48;8.60;99.90
12833;DHT22;6483;51.310;4.462;2022-12-07T10:32:06;8.20;99.90
12833;DHT22;6483;51.310;4.462;2022-12-07T10:34:37;8.10;99.90
12833;DHT22;6483;51.310;4.462;2022-12-07T10:39:56;7.90;99.90
12833;DHT22;6483;51.310;4.462;2022-12-07T10:42:29;7.90;99.90
12833;DHT22;6483;51.310;4.462;2022-12-07T10:45:20;7.90;99.90
12833;DHT22;6483;51.310;4.462;2022-12-07T11:01:51;8.10;99.90
12833;DHT22;6483;51.310;4.462;2022-12-07T11:10:13;8.00;99.90
12833;DHT22;6483;51.310;4.462;2022-12-07T11:29:07;7.70;99.90
12833;DHT22;6483;51.310;4.462;2022-12-07T11:31:54;7.70;99.90
12833;DHT22;6483;51.310;4.462;2022-12-07T11:37:21;7.60;99.90
12833;DHT22;6483;51.310;4.462;2022-12-07T11:40:40;7.70;99.90
12833;DHT22;6483;51.310;4.462;2022-12-07T11:43:13;8.10;99.90
12833;DHT22;6483;51.310;4.462;2022-12-07T11:45:47;8.60;99.90
12833;DHT22;6483;51.310;4.462;2022-12-07T11:48:46;8.80;99.90
12833;DHT22;6483;51.310;4.462;2022-12-07T11:51:16;8.80;99.90
12833;DHT22;6483;51.310;4.462;2022-12-07T11:53:49;8.80;99.90
12833;DHT22;6483;51.310;4.462;2022-12-07T11:56:23;8.50;99.90
12833;DHT22;6483;51.310;4.462;2022-12-07T11:59:06;8.30;99.90
12833;DHT22;6483;51.310;4.462;2022-12-07T12:04:39;8.20;99.90
12833;DHT22;6483;51.310;4.462;2022-12-07T12:07:07;8.30;99.90
12833;DHT22;6483;51.310;4.462;2022-12-07T12:10:06;8.10;99.90
12833;DHT22;6483;51.310;4.462;2022-12-07T12:21:28;8.40;99.90
12833;DHT22;6483;51.310;4.462;2022-12-07T12:27:02;8.10;99.90
12833;DHT22;6483;51.310;4.462;2022-12-07T12:29:38;8.40;99.90
12833;DHT22;6483;51.310;4.462;2022-12-07T12:35:31;10.70;99.90
12833;DHT22;6483;51.310;4.462;2022-12-07T12:40:42;9.90;99.90
12833;DHT22;6483;51.310;4.462;2022-12-07T12:48:54;8.70;99.90
12833;DHT22;6483;51.310;4.462;2022-12-07T12:51:38;8.50;99.90
12833;DHT22;6483;51.310;4.462;2022-12-07T12:59:57;8.30;99.90
12833;DHT22;6483;51.310;4.462;2022-12-07T13:02:35;8.20;99.90
12833;DHT22;6483;51.310;4.462;2022-12-07T13:07:52;8.00;99.90
12833;DHT22;6483;51.310;4.462;2022-12-07T13:15:49;7.50;99.90
12833;DHT22;6483;51.310;4.462;2022-12-07T13:26:51;7.40;99.90
12833;DHT22;6483;51.310;4.462;2022-12-07T13:29:21;7.40;99.90
12833;DHT22;6483;51.310;4.462;2022-12-07T13:31:58;7.40;99.90
12833;DHT22;6483;51.310;4.462;2022-12-07T13:34:43;9.20;99.90
12833;DHT22;6483;51.310;4.462;2022-12-07T13:37:31;7.90;99.90
12833;DHT22;6483;51.310;4.462;2022-12-07T13:40:00;8.10;99.90
12833;DHT22;6483;51.310;4.462;2022-12-07T13:42:32;8.10;99.90
12833;DHT22;6483;51.310;4.462;2022-12-07T13:45:00;8.00;99.90
12833;DHT22;6483;51.310;4.462;2022-12-07T13:47:34;8.10;99.90
12833;DHT22;6483;51.310;4.462;2022-12-07T13:52:46;8.40;99.90
12833;DHT22;6483;51.310;4.462;2022-12-07T13:55:15;8.30;99.90
12833;DHT22;6483;51.310;4.462;2022-12-07T13:57:43;8.20;99.90
12833;DHT22;6483;51.310;4.462;2022-12-07T14:00:16;8.00;99.90
12833;DHT22;6483;51.310;4.462;2022-12-07T14:03:03;7.90;99.90
12833;DHT22;6483;51.310;4.462;2022-12-07T14:05:32;7.70;99.90
12833;DHT22;6483;51.310;4.462;2022-12-07T14:08:00;7.60;99.90
12833;DHT22;6483;51.310;4.462;2022-12-07T14:13:39;7.90;99.90
12833;DHT22;6483;51.310;4.462;2022-12-07T14:16:33;7.90;99.90
12833;DHT22;6483;51.310;4.462;2022-12-07T14:19:03;7.90;99.90
12833;DHT22;6483;51.310;4.462;2022-12-07T14:21:32;7.70;99.90
12833;DHT22;6483;51.310;4.462;2022-12-07T14:26:42;7.20;99.90
12833;DHT22;6483;51.310;4.462;2022-12-07T14:35:13;7.10;99.90
12833;DHT22;6483;51.310;4.462;2022-12-07T14:37:41;7.10;99.90
12833;DHT22;6483;51.310;4.462;2022-12-07T14:40:23;7.00;99.90
12833;DHT22;6483;51.310;4.462;2022-12-07T14:43:00;7.10;99.90
12833;DHT22;6483;51.310;4.462;2022-12-07T14:45:27;7.00;99.90
12833;DHT22;6483;51.310;4.462;2022-12-07T14:47:52;7.10;99.90
12833;DHT22;6483;51.310;4.462;2022-12-07T14:50:19;7.10;99.90
12833;DHT22;6483;51.310;4.462;2022-12-07T14:52:56;7.20;99.90
12833;DHT22;6483;51.310;4.462;2022-12-07T14:55:27;7.20;99.90
12833;DHT22;6483;51.310;4.462;2022-12-07T14:57:54;7.20;99.90
12833;DHT22;6483;51.310;4.462;2022-12-07T15:00:21;7.10;99.90
12833;DHT22;6483;51.310;4.462;2022-12-07T15:02:48;7.00;99.90
12833;DHT22;6483;51.310;4.462;2022-12-07T15:05:14;7.00;99.90
12833;DHT22;6483;51.310;4.462;2022-12-07T15:07:48;6.90;99.90
12833;DHT22;6483;51.310;4.462;2022-12-07T15:10:21;6.80;99.90
12833;DHT22;6483;51.310;4.462;2022-12-07T15:12:48;6.60;99.90
12833;DHT22;6483;51.310;4.462;2022-12-07T15:15:13;6.60;99.90
12833;DHT22;6483;51.310;4.462;2022-12-07T15:17:40;6.50;99.90
12833;DHT22;6483;51.310;4.462;2022-12-07T15:20:13;6.50;99.90
12833;DHT22;6483;51.310;4.462;2022-12-07T15:22:43;6.40;99.90
12833;DHT22;6483;51.310;4.462;2022-12-07T15:25:12;7.30;99.90
12833;DHT22;6483;51.310;4.462;2022-12-07T15:27:40;6.40;99.90
12833;DHT22;6483;51.310;4.462;2022-12-07T15:30:07;6.40;99.90
12833;DHT22;6483;51.310;4.462;2022-12-07T15:32:40;6.40;99.90
12833;DHT22;6483;51.310;4.462;2022-12-07T15:35:09;6.40;99.90
12833;DHT22;6483;51.310;4.462;2022-12-07T15:37:35;6.30;99.90
12833;DHT22;6483;51.310;4.462;2022-12-07T15:40:00;6.20;99.90
12833;DHT22;6483;51.310;4.462;2022-12-07T15:42:26;6.10;99.90
12833;DHT22;6483;51.310;4.462;2022-12-07T15:44:55;7.40;99.90
12833;DHT22;6483;51.310;4.462;2022-12-07T15:47:50;5.90;99.90
12833;DHT22;6483;51.310;4.462;2022-12-07T15:50:16;5.90;99.90
12833;DHT22;6483;51.310;4.462;2022-12-07T15:52:42;5.80;99.90
12833;DHT22;6483;51.310;4.462;2022-12-07T15:55:11;5.80;99.90
12833;DHT22;6483;51.310;4.462;2022-12-07T15:57:38;5.80;99.90
12833;DHT22;6483;51.310;4.462;2022-12-07T16:00:06;5.80;99.90
12833;DHT22;6483;51.310;4.462;2022-12-07T16:02:33;5.80;99.90
12833;DHT22;6483;51.310;4.462;2022-12-07T16:05:00;5.80;99.90
12833;DHT22;6483;51.310;4.462;2022-12-07T16:07:26;6.00;99.90
12833;DHT22;6483;51.310;4.462;2022-12-07T16:09:54;5.70;99.90
12833;DHT22;6483;51.310;4.462;2022-12-07T16:12:20;5.60;99.90
12833;DHT22;6483;51.310;4.462;2022-12-07T16:14:46;5.50;99.90
12833;DHT22;6483;51.310;4.462;2022-12-07T16:17:12;5.40;99.90
12833;DHT22;6483;51.310;4.462;2022-12-07T16:19:38;6.80;99.90
12833;DHT22;6483;51.310;4.462;2022-12-07T16:22:06;5.30;99.90
12833;DHT22;6483;51.310;4.462;2022-12-07T16:24:33;5.30;99.90
12833;DHT22;6483;51.310;4.462;2022-12-07T16:26:59;5.30;99.90
12833;DHT22;6483;51.310;4.462;2022-12-07T16:29:25;5.30;99.90
12833;DHT22;6483;51.310;4.462;2022-12-07T16:31:52;5.30;99.90
12833;DHT22;6483;51.310;4.462;2022-12-07T16:34:21;5.30;99.90
12833;DHT22;6483;51.310;4.462;2022-12-07T16:36:49;5.50;99.90
12833;DHT22;6483;51.310;4.462;2022-12-07T16:39:16;5.40;99.90
12833;DHT22;6483;51.310;4.462;2022-12-07T16:41:46;5.40;99.90
12833;DHT22;6483;51.310;4.462;2022-12-07T16:44:12;5.40;99.90
12833;DHT22;6483;51.310;4.462;2022-12-07T16:46:40;5.40;99.90
12833;DHT22;6483;51.310;4.462;2022-12-07T16:49:06;5.30;99.90
12833;DHT22;6483;51.310;4.462;2022-12-07T16:51:32;5.30;99.90
12833;DHT22;6483;51.310;4.462;2022-12-07T16:54:01;5.30;99.90
12833;DHT22;6483;51.310;4.462;2022-12-07T16:56:27;5.40;99.90
12833;DHT22;6483;51.310;4.462;2022-12-07T16:58:54;5.50;99.90
12833;DHT22;6483;51.310;4.462;2022-12-07T17:01:24;5.50;99.90
12833;DHT22;6483;51.310;4.462;2022-12-07T17:03:50;5.50;99.90
12833;DHT22;6483;51.310;4.462;2022-12-07T17:06:20;5.50;99.90
12833;DHT22;6483;51.310;4.462;2022-12-07T17:08:47;5.50;99.90
12833;DHT22;6483;51.310;4.462;2022-12-07T17:11:21;5.60;99.90
12833;DHT22;6483;51.310;4.462;2022-12-07T17:13:48;5.60;99.90
12833;DHT22;6483;51.310;4.462;2022-12-07T17:16:33;5.60;99.90
12833;DHT22;6483;51.310;4.462;2022-12-07T17:19:03;5.60;99.90
12833;DHT22;6483;51.310;4.462;2022-12-07T17:21:28;5.50;99.90
12833;DHT22;6483;51.310;4.462;2022-12-07T17:23:57;5.50;99.90
12833;DHT22;6483;51.310;4.462;2022-12-07T17:26:24;5.60;99.90
12833;DHT22;6483;51.310;4.462;2022-12-07T17:28:50;5.90;99.90
12833;DHT22;6483;51.310;4.462;2022-12-07T17:31:18;5.50;99.90
12833;DHT22;6483;51.310;4.462;2022-12-07T17:33:45;5.50;99.90
12833;DHT22;6483;51.310;4.462;2022-12-07T17:36:23;5.50;99.90
12833;DHT22;6483;51.310;4.462;2022-12-07T17:38:52;5.60;99.90
12833;DHT22;6483;51.310;4.462;2022-12-07T17:41:28;5.60;99.90
12833;DHT22;6483;51.310;4.462;2022-12-07T17:44:15;5.50;99.90
12833;DHT22;6483;51.310;4.462;2022-12-07T17:46:42;5.50;99.90
12833;DHT22;6483;51.310;4.462;2022-12-07T17:49:11;5.50;99.90
12833;DHT22;6483;51.310;4.462;2022-12-07T17:51:40;5.50;99.90
12833;DHT22;6483;51.310;4.462;2022-12-07T17:54:24;5.50;99.90
12833;DHT22;6483;51.310;4.462;2022-12-07T17:56:50;5.50;99.90
12833;DHT22;6483;51.310;4.462;2022-12-07T17:59:16;5.90;99.90
12833;DHT22;6483;51.310;4.462;2022-12-07T18:01:42;5.50;99.90
12833;DHT22;6483;51.310;4.462;2022-12-07T18:04:09;5.60;99.90
12833;DHT22;6483;51.310;4.462;2022-12-07T18:06:39;5.60;99.90
12833;DHT22;6483;51.310;4.462;2022-12-07T18:09:05;5.40;99.90
12833;DHT22;6483;51.310;4.462;2022-12-07T18:11:32;5.50;99.90
12833;DHT22;6483;51.310;4.462;2022-12-07T18:14:01;5.30;99.90
12833;DHT22;6483;51.310;4.462;2022-12-07T18:16:28;5.30;99.90
12833;DHT22;6483;51.310;4.462;2022-12-07T18:19:00;5.30;99.90
12833;DHT22;6483;51.310;4.462;2022-12-07T18:21:27;5.30;99.90
12833;DHT22;6483;51.310;4.462;2022-12-07T18:23:56;5.50;99.90
12833;DHT22;6483;51.310;4.462;2022-12-07T18:26:24;6.50;99.90
12833;DHT22;6483;51.310;4.462;2022-12-07T18:28:51;5.40;99.90
12833;DHT22;6483;51.310;4.462;2022-12-07T18:31:17;5.40;99.90
12833;DHT22;6483;51.310;4.462;2022-12-07T18:33:47;5.40;99.90
12833;DHT22;6483;51.310;4.462;2022-12-07T18:36:15;5.40;99.90
12833;DHT22;6483;51.310;4.462;2022-12-07T18:38:42;5.40;99.90
12833;DHT22;6483;51.310;4.462;2022-12-07T18:41:11;5.40;99.90
12833;DHT22;6483;51.310;4.462;2022-12-07T18:43:38;5.30;99.90
12833;DHT22;6483;51.310;4.462;2022-12-07T18:46:17;5.10;99.90
12833;DHT22;6483;51.310;4.462;2022-12-07T18:48:46;5.00;99.90
12833;DHT22;6483;51.310;4.462;2022-12-07T18:51:13;5.00;99.90
12833;DHT22;6483;51.310;4.462;2022-12-07T18:53:39;4.90;99.90